createdAt,value
2019-03-12T00:00:04.091Z,100975.37
2019-03-12T00:01:10.413Z,100972.08
2019-03-12T00:02:14.480Z,100967.05
2019-03-12T00:03:18.850Z,100973.41
2019-03-12T00:04:22.911Z,100969.77
2019-03-12T00:05:26.941Z,100975.08
2019-03-12T00:06:31.000Z,100973.95
2019-03-12T00:07:35.013Z,100976.01
2019-03-12T00:08:39.142Z,100980.34
2019-03-12T00:09:43.171Z,100982.66
2019-03-12T00:10:47.188Z,100982.52
2019-03-12T00:11:51.243Z,100971.44
2019-03-12T00:13:01.817Z,100980.25
2019-03-12T00:14:05.901Z,100983.59
2019-03-12T00:15:10.189Z,100982.69
2019-03-12T00:16:14.219Z,100992.48
2019-03-12T00:17:18.673Z,100990.57
2019-03-12T00:18:23.179Z,100996.61
2019-03-12T00:19:27.477Z,101000.11
2019-03-12T00:20:31.460Z,101001.44
2019-03-12T00:21:35.457Z,101006.75
2019-03-12T00:22:39.525Z,101002.81
2019-03-12T00:23:43.525Z,100995.19
2019-03-12T00:24:47.704Z,101002.81
2019-03-12T00:25:51.802Z,101011.62
2019-03-12T00:26:55.969Z,101001.97
2019-03-12T00:28:00.319Z,101007.64
2019-03-12T00:29:04.534Z,101004.77
2019-03-12T00:30:09.029Z,101005.89
2019-03-12T00:31:13.347Z,101007.22
2019-03-12T00:32:17.680Z,101011.21
2019-03-12T00:33:22.167Z,101009.87
2019-03-12T00:34:26.477Z,101012.53
2019-03-12T00:35:30.845Z,101011.46
2019-03-12T00:36:35.181Z,101014.26
2019-03-12T00:37:39.420Z,101019.71
2019-03-12T00:38:43.704Z,101024.88
2019-03-12T00:39:48.160Z,101015.73
2019-03-12T00:40:52.482Z,101021.04
2019-03-12T00:41:56.763Z,101022.72
2019-03-12T00:43:01.140Z,101022.52
2019-03-12T00:44:05.375Z,101021.67
2019-03-12T00:45:09.738Z,101021.78
2019-03-12T00:46:14.129Z,101017.94
2019-03-12T00:47:18.560Z,101024.92
2019-03-12T00:48:22.618Z,101019.89
2019-03-12T00:49:27.034Z,101018.22
2019-03-12T00:50:31.453Z,101024.86
2019-03-12T00:51:35.890Z,101028.35
2019-03-12T00:52:40.450Z,101029.69
2019-03-12T00:53:44.623Z,101026.88
2019-03-12T00:54:48.955Z,101026.53
2019-03-12T00:55:53.391Z,101035.34
2019-03-12T00:56:57.819Z,101038.84
2019-03-12T00:58:02.098Z,101034.86
2019-03-12T00:59:06.380Z,101034.50
2019-03-12T01:00:12.972Z,101034.64
2019-03-12T01:01:17.375Z,101042.75
2019-03-12T01:02:21.732Z,101037.44
2019-03-12T01:03:26.072Z,101037.93
2019-03-12T01:04:30.407Z,101040.20
2019-03-12T01:05:34.661Z,101043.00
2019-03-12T01:06:38.908Z,101038.31
2019-03-12T01:07:43.144Z,101038.45
2019-03-12T01:08:47.633Z,101038.21
2019-03-12T01:09:51.901Z,101032.20
2019-03-12T01:10:55.976Z,101036.81
2019-03-12T01:11:59.962Z,101042.27
2019-03-12T01:13:14.408Z,101035.94
2019-03-12T01:14:18.423Z,101043.91
2019-03-12T01:15:22.457Z,101043.91
2019-03-12T01:16:26.530Z,101049.84
2019-03-12T01:17:30.526Z,101042.81
2019-03-12T01:18:34.581Z,101052.59
2019-03-12T01:19:38.640Z,101058.40
2019-03-12T01:20:43.002Z,101058.53
2019-03-12T01:21:47.315Z,101056.37
2019-03-12T01:22:51.545Z,101056.58
2019-03-12T01:23:55.948Z,101057.42
2019-03-12T01:25:00.392Z,101057.31
2019-03-12T01:26:04.790Z,101059.48
2019-03-12T01:27:09.176Z,101057.17
2019-03-12T01:28:13.509Z,101057.06
2019-03-12T01:29:17.791Z,101057.80
2019-03-12T01:30:21.849Z,101059.59
2019-03-12T01:31:25.915Z,101063.70
2019-03-12T01:32:30.105Z,101061.05
2019-03-12T01:33:34.513Z,101060.70
2019-03-12T01:34:38.924Z,101063.00
2019-03-12T01:35:42.965Z,101065.31
2019-03-12T01:36:47.225Z,101065.20
2019-03-12T01:37:51.634Z,101064.61
2019-03-12T01:38:55.962Z,101065.94
2019-03-12T01:40:00.459Z,101067.27
2019-03-12T01:41:04.685Z,101065.94
2019-03-12T01:42:09.080Z,101065.94
2019-03-12T01:43:13.347Z,101063.63
2019-03-12T01:44:17.601Z,101070.27
2019-03-12T01:45:21.998Z,101070.97
2019-03-12T01:46:26.198Z,101068.31
2019-03-12T01:47:30.496Z,101064.69
2019-03-12T01:48:34.847Z,101076.63
2019-03-12T01:49:39.300Z,101076.14
2019-03-12T01:50:43.655Z,101076.28
2019-03-12T01:51:48.066Z,101074.11
2019-03-12T01:52:52.382Z,101073.77
2019-03-12T01:53:56.870Z,101080.05
2019-03-12T01:55:01.150Z,101078.23
2019-03-12T01:56:05.337Z,101074.60
2019-03-12T01:57:09.692Z,101073.63
2019-03-12T01:58:14.760Z,101075.30
2019-03-12T01:59:18.419Z,101072.65
2019-03-12T02:00:22.835Z,101076.14
2019-03-12T02:01:27.140Z,101076.98
2019-03-12T02:02:31.171Z,101075.30
2019-03-12T02:03:35.173Z,101075.30
2019-03-12T02:04:39.172Z,101077.95
2019-03-12T02:05:43.191Z,101080.61
2019-03-12T02:06:47.292Z,101086.55
2019-03-12T02:07:51.428Z,101088.02
2019-03-12T02:08:55.431Z,101087.41
2019-03-12T02:09:59.481Z,101082.73
2019-03-12T02:11:03.551Z,101089.37
2019-03-12T02:12:07.642Z,101083.98
2019-03-12T02:13:11.708Z,101086.25
2019-03-12T02:14:25.794Z,101082.89
2019-03-12T02:15:30.103Z,101091.83
2019-03-12T02:16:35.083Z,101089.09
2019-03-12T02:17:38.910Z,101088.98
2019-03-12T02:18:43.272Z,101085.00
2019-03-12T02:19:47.642Z,101087.44
2019-03-12T02:20:51.910Z,101086.73
2019-03-12T02:21:56.254Z,101086.83
2019-03-12T02:23:00.694Z,101086.97
2019-03-12T02:24:05.147Z,101093.89
2019-03-12T02:25:10.480Z,101092.07
2019-03-12T02:26:14.780Z,101099.19
2019-03-12T02:27:19.113Z,101094.51
2019-03-12T02:28:23.581Z,101094.16
2019-03-12T02:29:27.821Z,101102.47
2019-03-12T02:30:32.132Z,101091.86
2019-03-12T02:31:36.355Z,101088.50
2019-03-12T02:32:44.252Z,101095.13
2019-03-12T02:33:45.114Z,101092.83
2019-03-12T02:34:49.386Z,101094.16
2019-03-12T02:35:53.686Z,101095.36
2019-03-12T02:36:58.151Z,101092.61
2019-03-12T02:38:02.621Z,101097.43
2019-03-12T02:39:07.366Z,101096.10
2019-03-12T02:40:11.947Z,101099.46
2019-03-12T02:41:16.363Z,101098.48
2019-03-12T02:42:20.662Z,101096.67
2019-03-12T02:43:24.978Z,101093.40
2019-03-12T02:44:29.320Z,101096.30
2019-03-12T02:45:33.712Z,101097.86
2019-03-12T02:46:38.131Z,101097.78
2019-03-12T02:47:42.517Z,101097.16
2019-03-12T02:48:46.812Z,101095.83
2019-03-12T02:49:51.355Z,101090.66
2019-03-12T02:50:55.667Z,101092.61
2019-03-12T02:52:00.052Z,101092.13
2019-03-12T02:53:04.432Z,101096.81
2019-03-12T02:54:09.419Z,101097.30
2019-03-12T02:55:13.605Z,101100.44
2019-03-12T02:56:17.856Z,101100.92
2019-03-12T02:57:22.318Z,101107.07
2019-03-12T02:58:26.722Z,101103.93
2019-03-12T02:59:31.031Z,101104.90
2019-03-12T03:00:35.383Z,101110.07
2019-03-12T03:01:39.873Z,101102.11
2019-03-12T03:02:44.259Z,101098.14
2019-03-12T03:03:48.562Z,101100.94
2019-03-12T03:04:54.233Z,101107.92
2019-03-12T03:06:01.413Z,101108.27
2019-03-12T03:07:09.834Z,101111.06
2019-03-12T03:08:14.194Z,101116.50
2019-03-12T03:09:18.438Z,101114.81
2019-03-12T03:10:22.940Z,101121.45
2019-03-12T03:11:27.480Z,101124.23
2019-03-12T03:12:31.740Z,101117.61
2019-03-12T03:13:36.159Z,101126.41
2019-03-12T03:14:41.201Z,101133.05
2019-03-12T03:15:45.736Z,101129.20
2019-03-12T03:16:50.162Z,101136.80
2019-03-12T03:17:54.417Z,101138.00
2019-03-12T03:18:58.733Z,101140.30
2019-03-12T03:20:03.182Z,101136.55
2019-03-12T03:21:07.512Z,101135.70
2019-03-12T03:22:11.792Z,101134.25
2019-03-12T03:23:16.137Z,101138.97
2019-03-12T03:24:20.419Z,101126.19
2019-03-12T03:25:24.652Z,101131.85
2019-03-12T03:26:28.992Z,101125.70
2019-03-12T03:27:33.287Z,101128.23
2019-03-12T03:28:37.669Z,101129.55
2019-03-12T03:29:41.894Z,101135.21
2019-03-12T03:30:46.304Z,101133.17
2019-03-12T03:31:50.632Z,101137.86
2019-03-12T03:32:54.897Z,101140.52
2019-03-12T03:33:59.330Z,101148.61
2019-03-12T03:35:03.611Z,101154.40
2019-03-12T03:36:07.847Z,101157.67
2019-03-12T03:37:12.056Z,101162.97
2019-03-12T03:38:16.424Z,101159.94
2019-03-12T03:39:20.712Z,101160.55
2019-03-12T03:40:25.070Z,101155.15
2019-03-12T03:41:29.490Z,101164.08
2019-03-12T03:42:33.788Z,101157.19
2019-03-12T03:43:38.246Z,101168.28
2019-03-12T03:44:42.568Z,101162.27
2019-03-12T03:45:46.952Z,101161.91
2019-03-12T03:46:51.374Z,101155.41
2019-03-12T03:47:55.776Z,101158.91
2019-03-12T03:49:00.182Z,101157.71
2019-03-12T03:50:04.372Z,101156.48
2019-03-12T03:51:08.364Z,101152.99
2019-03-12T03:52:12.702Z,101157.45
2019-03-12T03:53:17.020Z,101153.13
2019-03-12T03:54:21.453Z,101153.13
2019-03-12T03:55:25.709Z,101153.73
2019-03-12T03:56:30.039Z,101161.20
2019-03-12T03:57:34.252Z,101165.31
2019-03-12T03:58:38.237Z,101166.64
2019-03-12T03:59:42.571Z,101169.91
2019-03-12T04:00:46.940Z,101163.86
2019-03-12T04:01:51.221Z,101163.14
2019-03-12T04:02:55.831Z,101166.77
2019-03-12T04:04:00.200Z,101167.38
2019-03-12T04:05:04.924Z,101172.81
2019-03-12T04:06:09.387Z,101172.55
2019-03-12T04:07:13.802Z,101169.05
2019-03-12T04:08:18.136Z,101166.17
2019-03-12T04:09:22.441Z,101172.45
2019-03-12T04:10:26.851Z,101169.44
2019-03-12T04:11:31.157Z,101162.07
2019-03-12T04:12:35.662Z,101164.84
2019-03-12T04:13:39.782Z,101163.65
2019-03-12T04:14:44.066Z,101164.27
2019-03-12T04:15:48.305Z,101167.14
2019-03-12T04:16:52.485Z,101166.06
2019-03-12T04:17:56.940Z,101160.05
2019-03-12T04:19:01.350Z,101154.88
2019-03-12T04:20:06.042Z,101164.25
2019-03-12T04:21:10.394Z,101164.38
2019-03-12T04:22:14.424Z,101155.23
2019-03-12T04:23:18.432Z,101158.84
2019-03-12T04:24:22.491Z,101157.04
2019-03-12T04:25:26.502Z,101160.17
2019-03-12T04:26:30.794Z,101159.33
2019-03-12T04:27:35.137Z,101163.66
2019-03-12T04:28:39.365Z,101164.14
2019-03-12T04:29:43.665Z,101161.02
2019-03-12T04:30:47.973Z,101163.18
2019-03-12T04:31:52.320Z,101166.54
2019-03-12T04:32:56.705Z,101164.86
2019-03-12T04:34:11.709Z,101161.59
2019-03-12T04:35:17.206Z,101159.92
2019-03-12T04:36:21.498Z,101158.47
2019-03-12T04:37:25.956Z,101168.61
2019-03-12T04:38:30.243Z,101165.00
2019-03-12T04:39:34.630Z,101163.67
2019-03-12T04:40:38.849Z,101161.38
2019-03-12T04:41:43.226Z,101168.97
2019-03-12T04:42:47.486Z,101165.00
2019-03-12T04:43:51.891Z,101173.30
2019-03-12T04:44:56.306Z,101176.08
2019-03-12T04:46:00.598Z,101184.52
2019-03-12T04:47:05.025Z,101181.95
2019-03-12T04:48:09.342Z,101185.09
2019-03-12T04:49:13.684Z,101179.31
2019-03-12T04:50:18.133Z,101185.09
2019-03-12T04:51:22.233Z,101183.05
2019-03-12T04:52:26.552Z,101185.09
2019-03-12T04:53:31.004Z,101188.48
2019-03-12T04:54:35.359Z,101187.88
2019-03-12T04:55:39.546Z,101192.20
2019-03-12T04:56:43.780Z,101190.27
2019-03-12T04:57:48.051Z,101199.06
2019-03-12T04:58:52.467Z,101197.13
2019-03-12T04:59:56.920Z,101191.83
2019-03-12T05:01:01.419Z,101193.64
2019-03-12T05:02:05.727Z,101197.13
2019-03-12T05:03:10.011Z,101193.64
2019-03-12T05:04:14.380Z,101200.66
2019-03-12T05:05:18.875Z,101194.03
2019-03-12T05:06:23.334Z,101198.45
2019-03-12T05:07:27.716Z,101210.38
2019-03-12T05:08:32.090Z,101206.89
2019-03-12T05:09:36.485Z,101215.45
2019-03-12T05:10:40.779Z,101213.77
2019-03-12T05:11:44.819Z,101215.09
2019-03-12T05:12:48.845Z,101217.74
2019-03-12T05:14:02.778Z,101217.38
2019-03-12T05:15:09.443Z,101218.58
2019-03-12T05:16:13.933Z,101218.45
2019-03-12T05:17:23.953Z,101211.83
2019-03-12T05:18:28.265Z,101212.19
2019-03-12T05:19:32.567Z,101215.59
2019-03-12T05:20:37.007Z,101212.58
2019-03-12T05:21:41.341Z,101222.57
2019-03-12T05:22:45.610Z,101218.11
2019-03-12T05:23:50.023Z,101217.98
2019-03-12T05:24:54.429Z,101215.33
2019-03-12T05:25:58.761Z,101220.51
2019-03-12T05:27:03.130Z,101213.04
2019-03-12T05:28:07.432Z,101212.69
2019-03-12T05:29:11.760Z,101216.41
2019-03-12T05:30:17.202Z,101209.20
2019-03-12T05:31:21.520Z,101209.91
2019-03-12T05:32:26.098Z,101207.63
2019-03-12T05:33:30.468Z,101209.30
2019-03-12T05:34:34.635Z,101218.94
2019-03-12T05:35:38.821Z,101212.31
2019-03-12T05:36:43.169Z,101214.48
2019-03-12T05:37:47.540Z,101211.47
2019-03-12T05:38:51.791Z,101222.20
2019-03-12T05:39:56.086Z,101225.21
2019-03-12T05:41:00.581Z,101220.52
2019-03-12T05:42:04.856Z,101231.84
2019-03-12T05:43:09.216Z,101227.86
2019-03-12T05:44:13.515Z,101232.80
2019-03-12T05:45:17.804Z,101235.81
2019-03-12T05:46:22.141Z,101234.13
2019-03-12T05:47:26.593Z,101229.67
2019-03-12T05:48:30.961Z,101233.16
2019-03-12T05:49:35.271Z,101233.16
2019-03-12T05:50:39.454Z,101228.22
2019-03-12T05:51:43.866Z,101229.90
2019-03-12T05:52:49.258Z,101228.93
2019-03-12T05:53:52.790Z,101228.93
2019-03-12T05:54:56.995Z,101228.35
2019-03-12T05:56:01.374Z,101228.70
2019-03-12T05:57:05.947Z,101233.41
2019-03-12T05:58:10.403Z,101226.64
2019-03-12T05:59:14.742Z,101238.45
2019-03-12T06:00:19.040Z,101234.47
2019-03-12T06:01:23.338Z,101236.06
2019-03-12T06:02:27.678Z,101236.77
2019-03-12T06:03:31.882Z,101234.83
2019-03-12T06:04:35.889Z,101241.34
2019-03-12T06:05:39.952Z,101237.36
2019-03-12T06:06:44.046Z,101237.48
2019-03-12T06:07:48.076Z,101234.96
2019-03-12T06:08:52.158Z,101237.48
2019-03-12T06:09:56.198Z,101239.66
2019-03-12T06:11:00.199Z,101239.08
2019-03-12T06:12:04.317Z,101236.42
2019-03-12T06:13:08.538Z,101226.17
2019-03-12T06:14:12.617Z,101234.84
2019-03-12T06:15:16.667Z,101240.50
2019-03-12T06:16:20.697Z,101236.87
2019-03-12T06:17:24.749Z,101237.84
2019-03-12T06:18:28.873Z,101236.52
2019-03-12T06:19:33.296Z,101233.73
2019-03-12T06:20:37.296Z,101238.82
2019-03-12T06:21:41.293Z,101232.06
2019-03-12T06:22:45.470Z,101239.77
2019-03-12T06:23:49.652Z,101245.32
2019-03-12T06:24:53.709Z,101248.08
2019-03-12T06:25:57.732Z,101246.98
2019-03-12T06:27:01.769Z,101241.31
2019-03-12T06:28:05.817Z,101241.45
2019-03-12T06:29:09.854Z,101239.14
2019-03-12T06:30:14.062Z,101238.56
2019-03-12T06:31:23.219Z,101233.27
2019-03-12T06:32:34.398Z,101238.92
2019-03-12T06:34:12.254Z,101241.93
2019-03-12T06:35:20.887Z,101229.28
2019-03-12T06:37:28.989Z,101233.13
2019-03-12T06:38:43.185Z,101239.28
2019-03-12T06:39:56.345Z,101237.95
2019-03-12T06:41:07.099Z,101240.34
2019-03-12T06:42:17.544Z,101236.72
2019-03-12T06:43:56.993Z,101239.63
2019-03-12T06:45:07.321Z,101239.98
2019-03-12T06:46:46.979Z,101241.90
2019-03-12T06:48:16.472Z,101241.41
2019-03-12T06:49:27.773Z,101242.87
2019-03-12T06:50:53.357Z,101245.27
2019-03-12T06:52:06.295Z,101248.66
2019-03-12T06:53:34.420Z,101239.38
2019-03-12T06:55:16.015Z,101237.47
2019-03-12T06:57:30.356Z,101241.54
2019-03-12T06:58:40.002Z,101248.76
2019-03-12T06:59:49.163Z,101249.59
2019-03-12T07:01:07.979Z,101251.67
2019-03-12T07:03:15.717Z,101249.98
2019-03-12T07:04:27.609Z,101254.70
2019-03-12T07:05:41.569Z,101254.71
2019-03-12T07:06:50.909Z,101255.42
2019-03-12T07:08:02.370Z,101263.13
2019-03-12T07:09:21.143Z,101268.91
2019-03-12T07:11:32.533Z,101264.35
2019-03-12T07:12:43.653Z,101267.11
2019-03-12T07:13:52.201Z,101271.70
2019-03-12T07:15:06.672Z,101274.58
2019-03-12T07:16:15.381Z,101271.92
2019-03-12T07:18:25.505Z,101278.17
2019-03-12T07:19:43.127Z,101276.84
2019-03-12T07:21:56.374Z,101272.24
2019-03-12T07:23:21.666Z,101262.38
2019-03-12T07:24:40.894Z,101256.94
2019-03-12T07:26:23.382Z,101253.80
2019-03-12T07:27:31.601Z,101250.31
2019-03-12T07:28:50.983Z,101254.32
2019-03-12T07:29:59.539Z,101249.47
2019-03-12T07:31:08.875Z,101247.55
2019-03-12T07:33:18.967Z,101249.47
2019-03-12T07:34:36.504Z,101255.03
2019-03-12T07:35:36.649Z,101259.11
2019-03-12T07:37:00.160Z,101248.88
2019-03-12T07:38:11.527Z,101259.85
2019-03-12T07:39:20.730Z,101264.19
2019-03-12T07:40:29.152Z,101276.00
2019-03-12T07:41:40.421Z,101288.17
2019-03-12T07:42:51.796Z,101296.26
2019-03-12T07:46:04.703Z,101296.97
2019-03-12T07:47:12.815Z,101284.41
2019-03-12T07:48:52.349Z,101285.87
2019-03-12T07:50:01.699Z,101290.91
2019-03-12T07:51:11.267Z,101286.09
2019-03-12T07:52:19.714Z,101283.92
2019-03-12T07:53:28.935Z,101286.80
2019-03-12T07:54:38.163Z,101287.64
2019-03-12T07:55:47.385Z,101286.79
2019-03-12T07:56:56.811Z,101281.56
2019-03-12T07:58:06.382Z,101274.31
2019-03-12T07:59:22.547Z,101279.26
2019-03-12T08:00:47.619Z,101277.18
2019-03-12T08:04:03.834Z,101279.73
2019-03-12T08:06:11.127Z,101288.64
2019-03-12T08:07:21.372Z,101283.33
2019-03-12T08:08:29.746Z,101285.41
2019-03-12T08:09:38.965Z,101289.97
2019-03-12T08:10:56.093Z,101285.05
2019-03-12T08:12:05.507Z,101285.40
2019-03-12T08:15:22.988Z,101279.83
2019-03-12T08:16:44.305Z,101280.78
2019-03-12T08:17:54.598Z,101274.14
2019-03-12T08:19:05.176Z,101268.58
2019-03-12T08:20:16.544Z,101265.69
2019-03-12T08:21:25.714Z,101268.70
2019-03-12T08:22:42.602Z,101273.39
2019-03-12T08:23:51.911Z,101267.37
2019-03-12T08:25:07.168Z,101271.44
2019-03-12T08:27:14.440Z,101263.34
2019-03-12T08:28:26.838Z,101268.28
2019-03-12T08:29:39.002Z,101269.47
2019-03-12T08:31:46.929Z,101269.69
2019-03-12T08:32:56.185Z,101256.33
2019-03-12T08:34:13.003Z,101254.51
2019-03-12T08:35:22.059Z,101259.69
2019-03-12T08:36:31.530Z,101253.05
2019-03-12T08:37:40.938Z,101255.00
2019-03-12T08:38:50.100Z,101247.65
2019-03-12T08:40:02.553Z,101245.12
2019-03-12T08:41:12.565Z,101243.70
2019-03-12T08:42:22.747Z,101244.44
2019-03-12T08:43:35.858Z,101241.52
2019-03-12T08:44:55.009Z,101246.83
2019-03-12T08:46:04.116Z,101243.41
2019-03-12T08:47:19.152Z,101241.01
2019-03-12T08:48:44.529Z,101251.23
2019-03-12T08:50:51.416Z,101243.59
2019-03-12T08:52:02.414Z,101244.27
2019-03-12T08:53:13.573Z,101244.84
2019-03-12T08:54:28.633Z,101237.95
2019-03-12T08:55:44.791Z,101231.39
2019-03-12T08:56:55.799Z,101228.30
2019-03-12T08:58:09.748Z,101235.13
2019-03-12T08:59:35.032Z,101234.38
2019-03-12T09:00:48.035Z,101230.01
2019-03-12T09:04:01.309Z,101229.11
2019-03-12T09:05:10.538Z,101225.22
2019-03-12T09:06:19.848Z,101228.94
2019-03-12T09:07:29.148Z,101225.02
2019-03-12T09:09:42.275Z,101219.28
2019-03-12T09:11:49.489Z,101214.31
2019-03-12T09:12:58.740Z,101216.34
2019-03-12T09:14:26.971Z,101214.45
2019-03-12T09:15:42.506Z,101217.25
2019-03-12T09:16:51.768Z,101218.79
2019-03-12T09:18:08.157Z,101218.58
2019-03-12T09:19:17.582Z,101223.62
2019-03-12T09:20:29.650Z,101222.11
2019-03-12T09:21:38.721Z,101223.09
2019-03-12T09:22:48.994Z,101217.14
2019-03-12T09:24:01.049Z,101222.67
2019-03-12T09:25:17.136Z,101217.59
2019-03-12T09:28:31.100Z,101218.09
2019-03-12T09:30:39.706Z,101209.13
2019-03-12T09:31:47.185Z,101205.80
2019-03-12T09:32:58.033Z,101204.75
2019-03-12T09:34:22.234Z,101214.66
2019-03-12T09:35:31.354Z,101210.38
2019-03-12T09:36:39.448Z,101212.76
2019-03-12T09:37:47.564Z,101216.70
2019-03-12T09:38:57.502Z,101226.37
2019-03-12T09:40:07.523Z,101227.45
2019-03-12T09:41:20.540Z,101225.98
2019-03-12T09:44:34.759Z,101233.53
2019-03-12T09:45:58.076Z,101232.30
2019-03-12T09:47:07.280Z,101234.82
2019-03-12T09:48:16.546Z,101228.17
2019-03-12T09:49:29.617Z,101234.53
2019-03-12T09:50:39.013Z,101242.27
2019-03-12T09:51:47.135Z,101240.45
2019-03-12T09:53:12.398Z,101238.62
2019-03-12T09:55:20.647Z,101234.70
2019-03-12T09:56:29.844Z,101238.44
2019-03-12T09:57:47.023Z,101225.82
2019-03-12T09:59:53.716Z,101227.70
2019-03-12T10:01:37.943Z,101226.02
2019-03-12T10:03:44.903Z,101227.85
2019-03-12T10:04:55.830Z,101218.82
2019-03-12T10:06:13.306Z,101211.03
2019-03-12T10:07:21.422Z,101213.49
2019-03-12T10:08:40.407Z,101215.95
2019-03-12T10:09:53.474Z,101212.02
2019-03-12T10:11:03.432Z,101216.22
2019-03-12T10:13:20.069Z,101213.44
2019-03-12T10:15:02.657Z,101227.66
2019-03-12T10:16:11.641Z,101230.13
2019-03-12T10:18:43.312Z,101227.52
2019-03-12T10:19:52.716Z,101229.63
2019-03-12T10:21:07.782Z,101230.18
2019-03-12T10:22:23.844Z,101233.69
2019-03-12T10:23:35.880Z,101230.77
2019-03-12T10:25:21.558Z,101228.59
2019-03-12T10:26:38.618Z,101232.30
2019-03-12T10:27:47.588Z,101229.78
2019-03-12T10:28:56.802Z,101234.32
2019-03-12T10:30:13.935Z,101239.94
2019-03-12T10:31:25.032Z,101231.45
2019-03-12T10:32:33.117Z,101235.55
2019-03-12T10:33:50.284Z,101231.25
2019-03-12T10:34:58.613Z,101221.38
2019-03-12T10:36:08.051Z,101215.06
2019-03-12T10:37:17.318Z,101217.78
2019-03-12T10:38:37.363Z,101212.45
2019-03-12T10:40:05.494Z,101220.38
2019-03-12T10:41:16.662Z,101223.97
2019-03-12T10:42:28.594Z,101220.86
2019-03-12T10:43:37.437Z,101220.56
2019-03-12T10:44:49.417Z,101216.66
2019-03-12T10:45:57.613Z,101217.44
2019-03-12T10:47:06.559Z,101220.45
2019-03-12T10:48:11.013Z,101225.20
2019-03-12T10:49:15.062Z,101227.95
2019-03-12T10:50:19.238Z,101229.33
2019-03-12T10:51:23.281Z,101228.84
2019-03-12T10:52:27.386Z,101223.25
2019-03-12T10:53:31.414Z,101224.28
2019-03-12T10:54:35.549Z,101224.70
2019-03-12T10:55:39.632Z,101215.61
2019-03-12T10:56:43.716Z,101223.34
2019-03-12T10:57:47.737Z,101213.41
2019-03-12T10:58:51.855Z,101207.58
2019-03-12T10:59:56.124Z,101202.25
2019-03-12T11:01:00.342Z,101189.78
2019-03-12T11:02:04.391Z,101187.56
2019-03-12T11:03:08.477Z,101186.53
2019-03-12T11:04:12.489Z,101186.04
2019-03-12T11:05:16.731Z,101192.55
2019-03-12T11:06:20.987Z,101183.44
2019-03-12T11:07:25.117Z,101189.51
2019-03-12T11:08:29.170Z,101187.98
2019-03-12T11:09:33.369Z,101183.06
2019-03-12T11:10:37.451Z,101188.92
2019-03-12T11:11:41.623Z,101184.98
2019-03-12T11:12:45.638Z,101190.84
2019-03-12T11:13:50.185Z,101190.57
2019-03-12T11:14:56.322Z,101189.55
2019-03-12T11:16:01.205Z,101189.28
2019-03-12T11:17:06.475Z,101188.48
2019-03-12T11:18:12.885Z,101190.27
2019-03-12T11:19:17.644Z,101202.73
2019-03-12T11:20:22.296Z,101198.33
2019-03-12T11:21:26.465Z,101201.86
2019-03-12T11:22:31.845Z,101205.62
2019-03-12T11:23:37.061Z,101209.41
2019-03-12T11:24:41.874Z,101215.68
2019-03-12T11:25:46.279Z,101207.66
2019-03-12T11:26:50.534Z,101214.49
2019-03-12T11:27:55.204Z,101208.81
2019-03-12T11:29:00.462Z,101212.72
2019-03-12T11:30:05.801Z,101212.64
2019-03-12T11:31:11.188Z,101210.67
2019-03-12T11:32:16.166Z,101204.88
2019-03-12T11:33:20.486Z,101198.73
2019-03-12T11:34:24.668Z,101197.55
2019-03-12T11:35:38.816Z,101190.61
2019-03-12T11:36:33.956Z,101194.56
2019-03-12T11:37:39.370Z,101187.55
2019-03-12T11:38:44.316Z,101189.14
2019-03-12T11:39:49.741Z,101187.91
2019-03-12T11:40:54.252Z,101182.92
2019-03-12T11:41:59.898Z,101188.63
2019-03-12T11:43:08.352Z,101186.13
2019-03-12T11:44:13.639Z,101180.09
2019-03-12T11:45:20.601Z,101183.11
2019-03-12T11:46:24.209Z,101185.73
2019-03-12T11:47:31.141Z,101184.69
2019-03-12T11:48:35.995Z,101179.46
2019-03-12T11:49:42.854Z,101180.48
2019-03-12T11:50:47.536Z,101181.36
2019-03-12T11:51:54.601Z,101176.75
2019-03-12T11:53:00.093Z,101178.01
2019-03-12T11:54:04.000Z,101181.45
2019-03-12T11:55:08.869Z,101185.00
2019-03-12T11:56:13.432Z,101179.80
2019-03-12T11:57:17.789Z,101177.42
2019-03-12T11:58:22.210Z,101173.71
2019-03-12T11:59:26.473Z,101169.14
2019-03-12T12:00:33.409Z,101169.51
2019-03-12T12:01:38.054Z,101170.08
2019-03-12T12:02:42.280Z,101169.70
2019-03-12T12:03:46.811Z,101163.56
2019-03-12T12:04:51.710Z,101153.12
2019-03-12T12:05:56.212Z,101156.97
2019-03-12T12:07:01.558Z,101157.95
2019-03-12T12:08:06.030Z,101155.86
2019-03-12T12:09:11.011Z,101149.30
2019-03-12T12:10:15.643Z,101148.70
2019-03-12T12:11:20.767Z,101147.25
2019-03-12T12:12:26.323Z,101147.45
2019-03-12T12:13:32.929Z,101144.56
2019-03-12T12:14:39.230Z,101143.12
2019-03-12T12:15:45.651Z,101145.74
2019-03-12T12:16:49.949Z,101138.20
2019-03-12T12:17:54.249Z,101136.89
2019-03-12T12:19:04.474Z,101129.81
2019-03-12T12:20:10.712Z,101126.83
2019-03-12T12:21:21.485Z,101131.45
2019-03-12T12:22:32.290Z,101132.61
2019-03-12T12:23:43.676Z,101132.48
2019-03-12T12:24:57.224Z,101130.60
2019-03-12T12:26:18.923Z,101137.72
2019-03-12T12:27:24.873Z,101133.73
2019-03-12T12:28:29.670Z,101132.66
2019-03-12T12:29:36.278Z,101132.89
2019-03-12T12:30:40.834Z,101130.42
2019-03-12T12:31:47.414Z,101136.28
2019-03-12T12:32:50.035Z,101129.72
2019-03-12T12:34:03.103Z,101139.22
2019-03-12T12:35:11.900Z,101132.83
2019-03-12T12:36:16.753Z,101130.60
2019-03-12T12:37:21.004Z,101130.34
2019-03-12T12:38:26.082Z,101127.30
2019-03-12T12:39:41.033Z,101124.75
2019-03-12T12:40:54.322Z,101125.73
2019-03-12T12:42:00.127Z,101123.98
2019-03-12T12:43:15.500Z,101122.77
2019-03-12T12:44:20.541Z,101119.51
2019-03-12T12:45:26.420Z,101122.07
2019-03-12T12:46:31.157Z,101112.48
2019-03-12T12:47:35.349Z,101123.17
2019-03-12T12:48:40.072Z,101118.80
2019-03-12T12:49:45.910Z,101118.34
2019-03-12T12:51:02.348Z,101118.78
2019-03-12T12:51:54.989Z,101117.59
2019-03-12T12:52:59.077Z,101113.30
2019-03-12T12:54:03.450Z,101113.67
2019-03-12T12:55:08.490Z,101109.11
2019-03-12T12:56:13.580Z,101101.05
2019-03-12T12:57:17.687Z,101103.33
2019-03-12T12:58:22.782Z,101102.24
2019-03-12T12:59:26.833Z,101101.69
2019-03-12T13:00:30.984Z,101099.86
2019-03-12T13:01:35.129Z,101094.14
2019-03-12T13:02:39.241Z,101094.16
2019-03-12T13:03:43.318Z,101094.90
2019-03-12T13:04:47.457Z,101098.52
2019-03-12T13:05:51.523Z,101093.58
2019-03-12T13:06:56.553Z,101095.92
2019-03-12T13:08:00.628Z,101090.72
2019-03-12T13:09:06.079Z,101088.62
2019-03-12T13:10:12.377Z,101090.66
2019-03-12T13:11:16.448Z,101089.94
2019-03-12T13:12:20.630Z,101090.82
2019-03-12T13:13:24.735Z,101088.39
2019-03-12T13:14:40.732Z,101085.91
2019-03-12T13:15:32.902Z,101089.03
2019-03-12T13:16:36.972Z,101085.63
2019-03-12T13:17:41.070Z,101087.07